Aviation Digital Data Service (ADDS)

Output produced by METARs form (2256 UTC 20 January 2019)
found at http://www.aviationweather.gov/metar/data/
 
METAR text: LFOK 202230Z AUTO 02008KT 5000 BR NSC M01/M02 Q1019 NOSIG
Conditions at: LFOK (CHALONS/VATRY FA, FR) observed 2230 UTC 20 January 2019
Temperature: -1.0°C (30°F)
Dewpoint: -2.0°C (28°F) [RH = 93%]
Pressure (altimeter): 30.09 inches Hg (1019.0 mb)
Winds: from the NNE (20 degrees) at 9 MPH (8 knots; 4.1 m/s)
Visibility: 3 miles ( 5 km)
Ceiling: at least 12,000 feet AGL
Clouds: sky clear below 12,000 feet AGL
Weather: BR  (mist)

METAR text: LFOK 202200Z AUTO 02007KT 6000 NSC M01/M02 Q1019 TEMPO 3000 BR
Conditions at: LFOK (CHALONS/VATRY FA, FR) observed 2200 UTC 20 January 2019
Temperature: -1.0°C (30°F)
Dewpoint: -2.0°C (28°F) [RH = 93%]
Pressure (altimeter): 30.09 inches Hg (1019.0 mb)
Winds: from the NNE (20 degrees) at 8 MPH (7 knots; 3.6 m/s)
Visibility: 4 miles ( 6 km)
Ceiling: at least 12,000 feet AGL
Clouds: sky clear below 12,000 feet AGL
Weather: no significant weather observed at this time

METAR text: LFOK 202130Z AUTO 02007KT 5000 BR NSC M01/M02 Q1018 NOSIG
Conditions at: LFOK (CHALONS/VATRY FA, FR) observed 2130 UTC 20 January 2019
Temperature: -1.0°C (30°F)
Dewpoint: -2.0°C (28°F) [RH = 93%]
Pressure (altimeter): 30.06 inches Hg (1018.0 mb)
Winds: from the NNE (20 degrees) at 8 MPH (7 knots; 3.6 m/s)
Visibility: 3 miles ( 5 km)
Ceiling: at least 12,000 feet AGL
Clouds: sky clear below 12,000 feet AGL
Weather: BR  (mist)

METAR text: LFOK 202100Z AUTO 02007KT 6000 NSC M00/M02 Q1018 TEMPO 3000 BR
Conditions at: LFOK (CHALONS/VATRY FA, FR) observed 2100 UTC 20 January 2019
Temperature: 0.0°C (32°F)
Dewpoint: -2.0°C (28°F) [RH = 86%]
Pressure (altimeter): 30.06 inches Hg (1018.0 mb)
Winds: from the NNE (20 degrees) at 8 MPH (7 knots; 3.6 m/s)
Visibility: 4 miles ( 6 km)
Ceiling: at least 12,000 feet AGL
Clouds: sky clear below 12,000 feet AGL
Weather: no significant weather observed at this time

METAR text: LFOK 202030Z AUTO 02007KT 6000 NSC 00/M01 Q1018 TEMPO 3000 BR
Conditions at: LFOK (CHALONS/VATRY FA, FR) observed 2030 UTC 20 January 2019
Temperature: 0.0°C (32°F)
Dewpoint: -1.0°C (30°F) [RH = 93%]
Pressure (altimeter): 30.06 inches Hg (1018.0 mb)
Winds: from the NNE (20 degrees) at 8 MPH (7 knots; 3.6 m/s)
Visibility: 4 miles ( 6 km)
Ceiling: at least 12,000 feet AGL
Clouds: sky clear below 12,000 feet AGL
Weather: no significant weather observed at this time

METAR text: LFOK 202000Z AUTO 03008KT 7000 NSC 00/M01 Q1017 NOSIG
Conditions at: LFOK (CHALONS/VATRY FA, FR) observed 2000 UTC 20 January 2019
Temperature: 0.0°C (32°F)
Dewpoint: -1.0°C (30°F) [RH = 93%]
Pressure (altimeter): 30.03 inches Hg (1017.0 mb)
Winds: from the NNE (30 degrees) at 9 MPH (8 knots; 4.1 m/s)
Visibility: 4 miles ( 7 km)
Ceiling: at least 12,000 feet AGL
Clouds: sky clear below 12,000 feet AGL
Weather: no significant weather observed at this time

METAR text: LFOK 201930Z AUTO 04009KT 7000 NSC 01/M01 Q1017 NOSIG
Conditions at: LFOK (CHALONS/VATRY FA, FR) observed 1930 UTC 20 January 2019
Temperature: 1.0°C (34°F)
Dewpoint: -1.0°C (30°F) [RH = 86%]
Pressure (altimeter): 30.03 inches Hg (1017.0 mb)
Winds: from the NE (40 degrees) at 10 MPH (9 knots; 4.6 m/s)
Visibility: 4 miles ( 7 km)
Ceiling: at least 12,000 feet AGL
Clouds: sky clear below 12,000 feet AGL
Weather: no significant weather observed at this time

METAR text: LFOK 201900Z AUTO 03010KT 8000 FEW024 OVC056 01/M01 Q1017 NOSIG
Conditions at: LFOK (CHALONS/VATRY FA, FR) observed 1900 UTC 20 January 2019
Temperature: 1.0°C (34°F)
Dewpoint: -1.0°C (30°F) [RH = 86%]
Pressure (altimeter): 30.03 inches Hg (1017.0 mb)
Winds: from the NNE (30 degrees) at 12 MPH (10 knots; 5.1 m/s)
Visibility: 5 miles ( 8 km)
Ceiling: 5600 feet AGL
Clouds: few clouds at 2400 feet AGL
overcast cloud deck at 5600 feet AGL
Weather: no significant weather observed at this time

METAR text: LFOK 201830Z AUTO 03010KT 6000 NSC 01/M00 Q1016 NOSIG
Conditions at: LFOK (CHALONS/VATRY FA, FR) observed 1830 UTC 20 January 2019
Temperature: 1.0°C (34°F)
Dewpoint: 0.0°C (32°F) [RH = 93%]
Pressure (altimeter): 30.00 inches Hg (1016.0 mb)
Winds: from the NNE (30 degrees) at 12 MPH (10 knots; 5.1 m/s)
Visibility: 4 miles ( 6 km)
Ceiling: at least 12,000 feet AGL
Clouds: sky clear below 12,000 feet AGL
Weather: no significant weather observed at this time

METAR text: LFOK 201800Z AUTO 02009KT 6000 SCT015 OVC056 01/M00 Q1016 NOSIG
Conditions at: LFOK (CHALONS/VATRY FA, FR) observed 1800 UTC 20 January 2019
Temperature: 1.0°C (34°F)
Dewpoint: 0.0°C (32°F) [RH = 93%]
Pressure (altimeter): 30.00 inches Hg (1016.0 mb)
Winds: from the NNE (20 degrees) at 10 MPH (9 knots; 4.6 m/s)
Visibility: 4 miles ( 6 km)
Ceiling: 5600 feet AGL
Clouds: scattered clouds at 1500 feet AGL
overcast cloud deck at 5600 feet AGL
Weather: no significant weather observed at this time

METAR text: LFOK 201730Z AUTO 02009KT 7000 BKN017 OVC052 01/M00 Q1016 NOSIG
Conditions at: LFOK (CHALONS/VATRY FA, FR) observed 1730 UTC 20 January 2019
Temperature: 1.0°C (34°F)
Dewpoint: 0.0°C (32°F) [RH = 93%]
Pressure (altimeter): 30.00 inches Hg (1016.0 mb)
Winds: from the NNE (20 degrees) at 10 MPH (9 knots; 4.6 m/s)
Visibility: 4 miles ( 7 km)
Ceiling: 1700 feet AGL
Clouds: broken clouds at 1700 feet AGL
overcast cloud deck at 5200 feet AGL
Weather: no significant weather observed at this time

METAR text: LFOK 201700Z AUTO 03011KT 6000 BKN016 OVC054 01/M00 Q1016 TEMPO OVC013
Conditions at: LFOK (CHALONS/VATRY FA, FR) observed 1700 UTC 20 January 2019
Temperature: 1.0°C (34°F)
Dewpoint: 0.0°C (32°F) [RH = 93%]
Pressure (altimeter): 30.00 inches Hg (1016.0 mb)
Winds: from the NNE (30 degrees) at 13 MPH (11 knots; 5.7 m/s)
Visibility: 4 miles ( 6 km)
Ceiling: 1600 feet AGL
Clouds: broken clouds at 1600 feet AGL
overcast cloud deck at 5400 feet AGL
Weather: no significant weather observed at this time

METAR text: LFOK 201630Z AUTO 04011KT 5000 BR FEW008 SCT017 BKN029 01/M00 Q1015 TEMPO OVC013
Conditions at: LFOK (CHALONS/VATRY FA, FR) observed 1630 UTC 20 January 2019
Temperature: 1.0°C (34°F)
Dewpoint: 0.0°C (32°F) [RH = 93%]
Pressure (altimeter): 29.97 inches Hg (1015.0 mb)
Winds: from the NE (40 degrees) at 13 MPH (11 knots; 5.7 m/s)
Visibility: 3 miles ( 5 km)
Ceiling: 2900 feet AGL
Clouds: few clouds at 800 feet AGL
scattered clouds at 1700 feet AGL
broken clouds at 2900 feet AGL
Weather: BR  (mist)

METAR text: LFOK 201600Z AUTO 02010KT 5000 BR SCT008 BKN020 BKN029 01/M00 Q1015 BECMG OVC013
Conditions at: LFOK (CHALONS/VATRY FA, FR) observed 1600 UTC 20 January 2019
Temperature: 1.0°C (34°F)
Dewpoint: 0.0°C (32°F) [RH = 93%]
Pressure (altimeter): 29.97 inches Hg (1015.0 mb)
Winds: from the NNE (20 degrees) at 12 MPH (10 knots; 5.1 m/s)
Visibility: 3 miles ( 5 km)
Ceiling: 2000 feet AGL
Clouds: scattered clouds at 800 feet AGL
broken clouds at 2000 feet AGL
broken clouds at 2900 feet AGL
Weather: BR  (mist)

METAR text: LFOK 201530Z AUTO 03011KT 5000 BR BKN007 OVC019 01/00 Q1014 BECMG OVC013
Conditions at: LFOK (CHALONS/VATRY FA, FR) observed 1530 UTC 20 January 2019
Temperature: 1.0°C (34°F)
Dewpoint: 0.0°C (32°F) [RH = 93%]
Pressure (altimeter): 29.94 inches Hg (1014.0 mb)
Winds: from the NNE (30 degrees) at 13 MPH (11 knots; 5.7 m/s)
Visibility: 3 miles ( 5 km)
Ceiling: 700 feet AGL
Clouds: broken clouds at 700 feet AGL
overcast cloud deck at 1900 feet AGL
Weather: BR  (mist)

METAR text: LFOK 201500Z AUTO 03010KT 5000 BR BKN007 OVC021 02/01 Q1014 BECMG OVC013
Conditions at: LFOK (CHALONS/VATRY FA, FR) observed 1500 UTC 20 January 2019
Temperature: 2.0°C (36°F)
Dewpoint: 1.0°C (34°F) [RH = 93%]
Pressure (altimeter): 29.94 inches Hg (1014.0 mb)
Winds: from the NNE (30 degrees) at 12 MPH (10 knots; 5.1 m/s)
Visibility: 3 miles ( 5 km)
Ceiling: 700 feet AGL
Clouds: broken clouds at 700 feet AGL
overcast cloud deck at 2100 feet AGL
Weather: BR  (mist)

METAR text: LFOK 201430Z AUTO 03011KT 5000 BR OVC007 02/01 Q1014 BECMG OVC013
Conditions at: LFOK (CHALONS/VATRY FA, FR) observed 1430 UTC 20 January 2019
Temperature: 2.0°C (36°F)
Dewpoint: 1.0°C (34°F) [RH = 93%]
Pressure (altimeter): 29.94 inches Hg (1014.0 mb)
Winds: from the NNE (30 degrees) at 13 MPH (11 knots; 5.7 m/s)
Visibility: 3 miles ( 5 km)
Ceiling: 700 feet AGL
Clouds: overcast cloud deck at 700 feet AGL
Weather: BR  (mist)

METAR text: LFOK 201400Z AUTO 03010KT 4800 BR OVC007 02/01 Q1014 BECMG 6000 NSW OVC013
Conditions at: LFOK (CHALONS/VATRY FA, FR) observed 1400 UTC 20 January 2019
Temperature: 2.0°C (36°F)
Dewpoint: 1.0°C (34°F) [RH = 93%]
Pressure (altimeter): 29.94 inches Hg (1014.0 mb)
Winds: from the NNE (30 degrees) at 12 MPH (10 knots; 5.1 m/s)
Visibility: 2.98 miles (4.80 km)
Ceiling: 700 feet AGL
Clouds: overcast cloud deck at 700 feet AGL
Weather: BR  (mist)

METAR text: LFOK 201330Z AUTO 03010KT 4900 BR OVC007 02/01 Q1013 BECMG 7000 NSW OVC013
Conditions at: LFOK (CHALONS/VATRY FA, FR) observed 1330 UTC 20 January 2019
Temperature: 2.0°C (36°F)
Dewpoint: 1.0°C (34°F) [RH = 93%]
Pressure (altimeter): 29.91 inches Hg (1013.0 mb)
Winds: from the NNE (30 degrees) at 12 MPH (10 knots; 5.1 m/s)
Visibility: 3 miles ( 5 km)
Ceiling: 700 feet AGL
Clouds: overcast cloud deck at 700 feet AGL
Weather: BR  (mist)

METAR text: LFOK 201300Z AUTO 03009KT 4600 BR OVC007 02/01 Q1013 BECMG 7000 NSW OVC013
Conditions at: LFOK (CHALONS/VATRY FA, FR) observed 1300 UTC 20 January 2019
Temperature: 2.0°C (36°F)
Dewpoint: 1.0°C (34°F) [RH = 93%]
Pressure (altimeter): 29.91 inches Hg (1013.0 mb)
Winds: from the NNE (30 degrees) at 10 MPH (9 knots; 4.6 m/s)
Visibility: 2.86 miles (4.60 km)
Ceiling: 700 feet AGL
Clouds: overcast cloud deck at 700 feet AGL
Weather: BR  (mist)

METAR text: LFOK 201230Z AUTO 02007KT 4200 BR OVC007 02/01 Q1013 BECMG 7000 NSW OVC013
Conditions at: LFOK (CHALONS/VATRY FA, FR) observed 1230 UTC 20 January 2019
Temperature: 2.0°C (36°F)
Dewpoint: 1.0°C (34°F) [RH = 93%]
Pressure (altimeter): 29.91 inches Hg (1013.0 mb)
Winds: from the NNE (20 degrees) at 8 MPH (7 knots; 3.6 m/s)
Visibility: 2.61 miles (4.20 km)
Ceiling: 700 feet AGL
Clouds: overcast cloud deck at 700 feet AGL
Weather: BR  (mist)

METAR text: LFOK 201200Z AUTO 03006KT 4700 BR BKN006 OVC016 02/01 Q1013 BECMG 7000 NSW OVC013
Conditions at: LFOK (CHALONS/VATRY FA, FR) observed 1200 UTC 20 January 2019
Temperature: 2.0°C (36°F)
Dewpoint: 1.0°C (34°F) [RH = 93%]
Pressure (altimeter): 29.91 inches Hg (1013.0 mb)
Winds: from the NNE (30 degrees) at 7 MPH (6 knots; 3.1 m/s)
Visibility: 2.92 miles (4.70 km)
Ceiling: 600 feet AGL
Clouds: broken clouds at 600 feet AGL
overcast cloud deck at 1600 feet AGL
Weather: BR  (mist)

METAR text: LFOK 201130Z AUTO 06007KT 5000 BR BKN006 OVC011 02/01 Q1013 BECMG OVC013
Conditions at: LFOK (CHALONS/VATRY FA, FR) observed 1130 UTC 20 January 2019
Temperature: 2.0°C (36°F)
Dewpoint: 1.0°C (34°F) [RH = 93%]
Pressure (altimeter): 29.91 inches Hg (1013.0 mb)
Winds: from the ENE (60 degrees) at 8 MPH (7 knots; 3.6 m/s)
Visibility: 3 miles ( 5 km)
Ceiling: 600 feet AGL
Clouds: broken clouds at 600 feet AGL
overcast cloud deck at 1100 feet AGL
Weather: BR  (mist)

METAR text: LFOK 201100Z AUTO 06007KT 5000 BR OVC007 02/01 Q1013 TEMPO 2000 RADZ
Conditions at: LFOK (CHALONS/VATRY FA, FR) observed 1100 UTC 20 January 2019
Temperature: 2.0°C (36°F)
Dewpoint: 1.0°C (34°F) [RH = 93%]
Pressure (altimeter): 29.91 inches Hg (1013.0 mb)
Winds: from the ENE (60 degrees) at 8 MPH (7 knots; 3.6 m/s)
Visibility: 3 miles ( 5 km)
Ceiling: 700 feet AGL
Clouds: overcast cloud deck at 700 feet AGL
Weather: BR  (mist)

METAR text: LFOK 201030Z AUTO 06007KT 4900 BR OVC006 02/01 Q1013 TEMPO 2000 RADZ
Conditions at: LFOK (CHALONS/VATRY FA, FR) observed 1030 UTC 20 January 2019
Temperature: 2.0°C (36°F)
Dewpoint: 1.0°C (34°F) [RH = 93%]
Pressure (altimeter): 29.91 inches Hg (1013.0 mb)
Winds: from the ENE (60 degrees) at 8 MPH (7 knots; 3.6 m/s)
Visibility: 3 miles ( 5 km)
Ceiling: 600 feet AGL
Clouds: overcast cloud deck at 600 feet AGL
Weather: BR  (mist)

METAR text: LFOK 201000Z AUTO 06007KT 5000 BR OVC007 02/01 Q1013 TEMPO 2000 RADZ
Conditions at: LFOK (CHALONS/VATRY FA, FR) observed 1000 UTC 20 January 2019
Temperature: 2.0°C (36°F)
Dewpoint: 1.0°C (34°F) [RH = 93%]
Pressure (altimeter): 29.91 inches Hg (1013.0 mb)
Winds: from the ENE (60 degrees) at 8 MPH (7 knots; 3.6 m/s)
Visibility: 3 miles ( 5 km)
Ceiling: 700 feet AGL
Clouds: overcast cloud deck at 700 feet AGL
Weather: BR  (mist)

METAR text: LFOK 200930Z AUTO 06007KT 5000 BR SCT003/// OVC008/// ///TCU 01/01 Q1012 TEMPO 2000 RADZ OVC007
Conditions at: LFOK (CHALONS/VATRY FA, FR) observed 0930 UTC 20 January 2019
Temperature: 1.0°C (34°F)
Dewpoint: 1.0°C (34°F) [RH = 100%]
Pressure (altimeter): 29.88 inches Hg (1012.0 mb)
Winds: from the ENE (60 degrees) at 8 MPH (7 knots; 3.6 m/s)
Visibility: 3 miles ( 5 km)
Ceiling: 800 feet AGL
Clouds: scattered clouds at 300 feet AGL
overcast cloud deck at 800 feet AGL
Weather: BR  (mist)

METAR text: LFOK 200900Z AUTO 06006KT 5000 BR OVC006/// ///TCU 01/01 Q1012 TEMPO 2000 RADZ OVC007
Conditions at: LFOK (CHALONS/VATRY FA, FR) observed 0900 UTC 20 January 2019
Temperature: 1.0°C (34°F)
Dewpoint: 1.0°C (34°F) [RH = 100%]
Pressure (altimeter): 29.88 inches Hg (1012.0 mb)
Winds: from the ENE (60 degrees) at 7 MPH (6 knots; 3.1 m/s)
Visibility: 3 miles ( 5 km)
Ceiling: 600 feet AGL
Clouds: overcast cloud deck at 600 feet AGL
Weather: BR  (mist)

METAR text: LFOK 200830Z AUTO 07005KT 5000 BR OVC006 01/01 Q1012 TEMPO 2000 RADZ
Conditions at: LFOK (CHALONS/VATRY FA, FR) observed 0830 UTC 20 January 2019
Temperature: 1.0°C (34°F)
Dewpoint: 1.0°C (34°F) [RH = 100%]
Pressure (altimeter): 29.88 inches Hg (1012.0 mb)
Winds: from the ENE (70 degrees) at 6 MPH (5 knots; 2.6 m/s)
Visibility: 3 miles ( 5 km)
Ceiling: 600 feet AGL
Clouds: overcast cloud deck at 600 feet AGL
Weather: BR  (mist)

METAR text: LFOK 200800Z AUTO 05005KT 4700 BR OVC006 01/00 Q1011 TEMPO 2000 RADZ
Conditions at: LFOK (CHALONS/VATRY FA, FR) observed 0800 UTC 20 January 2019
Temperature: 1.0°C (34°F)
Dewpoint: 0.0°C (32°F) [RH = 93%]
Pressure (altimeter): 29.85 inches Hg (1011.0 mb)
Winds: from the NE (50 degrees) at 6 MPH (5 knots; 2.6 m/s)
Visibility: 2.92 miles (4.70 km)
Ceiling: 600 feet AGL
Clouds: overcast cloud deck at 600 feet AGL
Weather: BR  (mist)

METAR text: LFOK 200730Z AUTO 04004KT 4800 BR OVC006/// ///TCU 01/00 Q1011 TEMPO 2000 RADZ OVC007
Conditions at: LFOK (CHALONS/VATRY FA, FR) observed 0730 UTC 20 January 2019
Temperature: 1.0°C (34°F)
Dewpoint: 0.0°C (32°F) [RH = 93%]
Pressure (altimeter): 29.85 inches Hg (1011.0 mb)
Winds: from the NE (40 degrees) at 5 MPH (4 knots; 2.1 m/s)
Visibility: 2.98 miles (4.80 km)
Ceiling: 600 feet AGL
Clouds: overcast cloud deck at 600 feet AGL
Weather: BR  (mist)

METAR text: LFOK 200700Z AUTO 07004KT 7000 OVC006/// ///CB 01/00 Q1011 TEMPO 2000 RADZ OVC007
Conditions at: LFOK (CHALONS/VATRY FA, FR) observed 0700 UTC 20 January 2019
Temperature: 1.0°C (34°F)
Dewpoint: 0.0°C (32°F) [RH = 93%]
Pressure (altimeter): 29.85 inches Hg (1011.0 mb)
Winds: from the ENE (70 degrees) at 5 MPH (4 knots; 2.1 m/s)
Visibility: 4 miles ( 7 km)
Ceiling: 600 feet AGL
Clouds: overcast cloud deck at 600 feet AGL
Weather: no significant weather observed at this time

METAR text: LFOK 200630Z AUTO VRB02KT 7000 OVC007/// ///TCU 01/00 Q1010 TEMPO 2000 RADZ OVC007
Conditions at: LFOK (CHALONS/VATRY FA, FR) observed 0630 UTC 20 January 2019
Temperature: 1.0°C (34°F)
Dewpoint: 0.0°C (32°F) [RH = 93%]
Pressure (altimeter): 29.82 inches Hg (1010.0 mb)
Winds: variable direction winds at 2 MPH (2 knots; 1.0 m/s)
Visibility: 4 miles ( 7 km)
Ceiling: 700 feet AGL
Clouds: overcast cloud deck at 700 feet AGL
Weather: no significant weather observed at this time

METAR text: LFOK 200600Z AUTO 11004KT 9000 OVC008/// ///TCU 01/M00 Q1010 TEMPO 2000 RADZ OVC007
Conditions at: LFOK (CHALONS/VATRY FA, FR) observed 0600 UTC 20 January 2019
Temperature: 1.0°C (34°F)
Dewpoint: 0.0°C (32°F) [RH = 93%]
Pressure (altimeter): 29.82 inches Hg (1010.0 mb)
Winds: from the ESE (110 degrees) at 5 MPH (4 knots; 2.1 m/s)
Visibility: 6 miles ( 9 km)
Ceiling: 800 feet AGL
Clouds: overcast cloud deck at 800 feet AGL
Weather: no significant weather observed at this time

METAR text: LFOK 200530Z AUTO 11005KT 9000 OVC008/// ///TCU 01/M00 Q1010 BECMG 2000 -SN OVC003
Conditions at: LFOK (CHALONS/VATRY FA, FR) observed 0530 UTC 20 January 2019
Temperature: 1.0°C (34°F)
Dewpoint: 0.0°C (32°F) [RH = 93%]
Pressure (altimeter): 29.82 inches Hg (1010.0 mb)
Winds: from the ESE (110 degrees) at 6 MPH (5 knots; 2.6 m/s)
Visibility: 6 miles ( 9 km)
Ceiling: 800 feet AGL
Clouds: overcast cloud deck at 800 feet AGL
Weather: no significant weather observed at this time

METAR text: LFOK 200500Z AUTO 11005KT 9000 OVC008 01/M00 Q1010 BECMG 2000 -SN OVC003
Conditions at: LFOK (CHALONS/VATRY FA, FR) observed 0500 UTC 20 January 2019
Temperature: 1.0°C (34°F)
Dewpoint: 0.0°C (32°F) [RH = 93%]
Pressure (altimeter): 29.82 inches Hg (1010.0 mb)
Winds: from the ESE (110 degrees) at 6 MPH (5 knots; 2.6 m/s)
Visibility: 6 miles ( 9 km)
Ceiling: 800 feet AGL
Clouds: overcast cloud deck at 800 feet AGL
Weather: no significant weather observed at this time

METAR text: LFOK 200430Z AUTO 11007KT 9000 OVC009 01/00 Q1010 BECMG 2000 -SN OVC003
Conditions at: LFOK (CHALONS/VATRY FA, FR) observed 0430 UTC 20 January 2019
Temperature: 1.0°C (34°F)
Dewpoint: 0.0°C (32°F) [RH = 93%]
Pressure (altimeter): 29.82 inches Hg (1010.0 mb)
Winds: from the ESE (110 degrees) at 8 MPH (7 knots; 3.6 m/s)
Visibility: 6 miles ( 9 km)
Ceiling: 900 feet AGL
Clouds: overcast cloud deck at 900 feet AGL
Weather: no significant weather observed at this time

METAR text: LFOK 200400Z AUTO 11007KT 9999 OVC009 01/M00 Q1010 TEMPO 2000 RADZ
Conditions at: LFOK (CHALONS/VATRY FA, FR) observed 0400 UTC 20 January 2019
Temperature: 1.0°C (34°F)
Dewpoint: 0.0°C (32°F) [RH = 93%]
Pressure (altimeter): 29.82 inches Hg (1010.0 mb)
Winds: from the ESE (110 degrees) at 8 MPH (7 knots; 3.6 m/s)
Visibility: 6 or more miles (10+ km)
Ceiling: 900 feet AGL
Clouds: overcast cloud deck at 900 feet AGL
Weather: no significant weather observed at this time

METAR text: LFOK 200330Z AUTO 12007KT 9999 OVC009/// ///TCU 01/00 Q1010 TEMPO 2000 RADZ OVC008
Conditions at: LFOK (CHALONS/VATRY FA, FR) observed 0330 UTC 20 January 2019
Temperature: 1.0°C (34°F)
Dewpoint: 0.0°C (32°F) [RH = 93%]
Pressure (altimeter): 29.82 inches Hg (1010.0 mb)
Winds: from the ESE (120 degrees) at 8 MPH (7 knots; 3.6 m/s)
Visibility: 6 or more miles (10+ km)
Ceiling: 900 feet AGL
Clouds: overcast cloud deck at 900 feet AGL
Weather: no significant weather observed at this time

METAR text: LFOK 200300Z AUTO 11007KT 8000 BKN009/// OVC019/// ///TCU 01/00 Q1010 TEMPO 2000 RADZ OVC008
Conditions at: LFOK (CHALONS/VATRY FA, FR) observed 0300 UTC 20 January 2019
Temperature: 1.0°C (34°F)
Dewpoint: 0.0°C (32°F) [RH = 93%]
Pressure (altimeter): 29.82 inches Hg (1010.0 mb)
Winds: from the ESE (110 degrees) at 8 MPH (7 knots; 3.6 m/s)
Visibility: 5 miles ( 8 km)
Ceiling: 900 feet AGL
Clouds: broken clouds at 900 feet AGL
overcast cloud deck at 1900 feet AGL
Weather: no significant weather observed at this time

METAR text: LFOK 200230Z AUTO 13007KT 7000 -RADZ FEW010/// SCT017/// BKN023/// ///TCU 01/00 Q1010 TEMPO 2000 RADZ OVC008
Conditions at: LFOK (CHALONS/VATRY FA, FR) observed 0230 UTC 20 January 2019
Temperature: 1.0°C (34°F)
Dewpoint: 0.0°C (32°F) [RH = 93%]
Pressure (altimeter): 29.82 inches Hg (1010.0 mb)
Winds: from the SE (130 degrees) at 8 MPH (7 knots; 3.6 m/s)
Visibility: 4 miles ( 7 km)
Ceiling: 2300 feet AGL
Clouds: few clouds at 1000 feet AGL
scattered clouds at 1700 feet AGL
broken clouds at 2300 feet AGL
Weather: -RA -DZ  (light rain, light drizzle)

METAR text: LFOK 200200Z AUTO 12008KT 8000 SCT011/// BKN018/// BKN023/// ///TCU 01/00 Q1010 TEMPO 2000 RADZ OVC008
Conditions at: LFOK (CHALONS/VATRY FA, FR) observed 0200 UTC 20 January 2019
Temperature: 1.0°C (34°F)
Dewpoint: 0.0°C (32°F) [RH = 93%]
Pressure (altimeter): 29.82 inches Hg (1010.0 mb)
Winds: from the ESE (120 degrees) at 9 MPH (8 knots; 4.1 m/s)
Visibility: 5 miles ( 8 km)
Ceiling: 1800 feet AGL
Clouds: scattered clouds at 1100 feet AGL
broken clouds at 1800 feet AGL
broken clouds at 2300 feet AGL
Weather: no significant weather observed at this time

METAR text: LFOK 200130Z AUTO 11008KT 6000 -RA FEW012/// SCT017/// BKN025/// ///TCU 01/00 Q1010 TEMPO 2000 RADZ OVC008
Conditions at: LFOK (CHALONS/VATRY FA, FR) observed 0130 UTC 20 January 2019
Temperature: 1.0°C (34°F)
Dewpoint: 0.0°C (32°F) [RH = 93%]
Pressure (altimeter): 29.82 inches Hg (1010.0 mb)
Winds: from the ESE (110 degrees) at 9 MPH (8 knots; 4.1 m/s)
Visibility: 4 miles ( 6 km)
Ceiling: 2500 feet AGL
Clouds: few clouds at 1200 feet AGL
scattered clouds at 1700 feet AGL
broken clouds at 2500 feet AGL
Weather: -RA  (light rain)

METAR text: LFOK 200100Z AUTO 12007KT 6000 -RA SCT012/// OVC021/// ///CB 01/00 Q1010 TEMPO 2000 RADZ OVC008
Conditions at: LFOK (CHALONS/VATRY FA, FR) observed 0100 UTC 20 January 2019
Temperature: 1.0°C (34°F)
Dewpoint: 0.0°C (32°F) [RH = 93%]
Pressure (altimeter): 29.82 inches Hg (1010.0 mb)
Winds: from the ESE (120 degrees) at 8 MPH (7 knots; 3.6 m/s)
Visibility: 4 miles ( 6 km)
Ceiling: 2100 feet AGL
Clouds: scattered clouds at 1200 feet AGL
overcast cloud deck at 2100 feet AGL
Weather: -RA  (light rain)

METAR text: LFOK 200030Z AUTO 12006KT 8000 -RA OVC023/// ///CB 01/M00 Q1010 TEMPO 2000 RADZ OVC008
Conditions at: LFOK (CHALONS/VATRY FA, FR) observed 0030 UTC 20 January 2019
Temperature: 1.0°C (34°F)
Dewpoint: 0.0°C (32°F) [RH = 93%]
Pressure (altimeter): 29.82 inches Hg (1010.0 mb)
Winds: from the ESE (120 degrees) at 7 MPH (6 knots; 3.1 m/s)
Visibility: 5 miles ( 8 km)
Ceiling: 2300 feet AGL
Clouds: overcast cloud deck at 2300 feet AGL
Weather: -RA  (light rain)

METAR text: LFOK 200000Z AUTO 12007KT 7000 -FZRA BKN021/// BKN027/// OVC040/// ///CB 00/M00 Q1010 TEMPO 2000 RADZ OVC008
Conditions at: LFOK (CHALONS/VATRY FA, FR) observed 0000 UTC 20 January 2019
Temperature: 0.0°C (32°F)
Dewpoint: 0.0°C (32°F) [RH = 100%]
Pressure (altimeter): 29.82 inches Hg (1010.0 mb)
Winds: from the ESE (120 degrees) at 8 MPH (7 knots; 3.6 m/s)
Visibility: 4 miles ( 7 km)
Ceiling: 2100 feet AGL
Clouds: broken clouds at 2100 feet AGL
broken clouds at 2700 feet AGL
overcast cloud deck at 4000 feet AGL
Weather: -FZRA  (light freezing rain)

METAR text: LFOK 192330Z AUTO 12009KT 7000 -RA BKN023/// BKN029/// BKN035/// ///CB 00/M00 Q1010 TEMPO 2000 RADZ OVC008
Conditions at: LFOK (CHALONS/VATRY FA, FR) observed 2330 UTC 19 January 2019
Temperature: 0.0°C (32°F)
Dewpoint: 0.0°C (32°F) [RH = 100%]
Pressure (altimeter): 29.82 inches Hg (1010.0 mb)
Winds: from the ESE (120 degrees) at 10 MPH (9 knots; 4.6 m/s)
Visibility: 4 miles ( 7 km)
Ceiling: 2300 feet AGL
Clouds: broken clouds at 2300 feet AGL
broken clouds at 2900 feet AGL
broken clouds at 3500 feet AGL
Weather: -RA  (light rain)

METAR text: LFOK 192300Z AUTO 12008KT 7000 -RA SCT020/// BKN026/// OVC037/// ///TCU 00/M00 Q1010 TEMPO 2000 RADZ BECMG OVC012
Conditions at: LFOK (CHALONS/VATRY FA, FR) observed 2300 UTC 19 January 2019
Temperature: 0.0°C (32°F)
Dewpoint: 0.0°C (32°F) [RH = 100%]
Pressure (altimeter): 29.82 inches Hg (1010.0 mb)
Winds: from the ESE (120 degrees) at 9 MPH (8 knots; 4.1 m/s)
Visibility: 4 miles ( 7 km)
Ceiling: 2600 feet AGL
Clouds: scattered clouds at 2000 feet AGL
broken clouds at 2600 feet AGL
overcast cloud deck at 3700 feet AGL
Weather: -RA  (light rain)

METAR text: LFOK 192230Z AUTO 11006KT 7000 -RA OVC021/// ///CB 00/M00 Q1010 TEMPO 2000 RADZ BECMG OVC012
Conditions at: LFOK (CHALONS/VATRY FA, FR) observed 2230 UTC 19 January 2019
Temperature: 0.0°C (32°F)
Dewpoint: 0.0°C (32°F) [RH = 100%]
Pressure (altimeter): 29.82 inches Hg (1010.0 mb)
Winds: from the ESE (110 degrees) at 7 MPH (6 knots; 3.1 m/s)
Visibility: 4 miles ( 7 km)
Ceiling: 2100 feet AGL
Clouds: overcast cloud deck at 2100 feet AGL
Weather: -RA  (light rain)

METAR text: LFOK 192200Z AUTO 12007KT 7000 -RA OVC018/// ///TCU 00/M00 Q1010 TEMPO 2000 RADZ OVC008
Conditions at: LFOK (CHALONS/VATRY FA, FR) observed 2200 UTC 19 January 2019
Temperature: 0.0°C (32°F)
Dewpoint: 0.0°C (32°F) [RH = 100%]
Pressure (altimeter): 29.82 inches Hg (1010.0 mb)
Winds: from the ESE (120 degrees) at 8 MPH (7 knots; 3.6 m/s)
Visibility: 4 miles ( 7 km)
Ceiling: 1800 feet AGL
Clouds: overcast cloud deck at 1800 feet AGL
Weather: -RA  (light rain)

METAR text: LFOK 192130Z AUTO 12008KT 7000 -RA BKN017/// OVC022/// ///TCU 00/M00 Q1010 TEMPO 2000 RADZ OVC008
Conditions at: LFOK (CHALONS/VATRY FA, FR) observed 2130 UTC 19 January 2019
Temperature: 0.0°C (32°F)
Dewpoint: 0.0°C (32°F) [RH = 100%]
Pressure (altimeter): 29.82 inches Hg (1010.0 mb)
Winds: from the ESE (120 degrees) at 9 MPH (8 knots; 4.1 m/s)
Visibility: 4 miles ( 7 km)
Ceiling: 1700 feet AGL
Clouds: broken clouds at 1700 feet AGL
overcast cloud deck at 2200 feet AGL
Weather: -RA  (light rain)

METAR text: LFOK 192100Z AUTO 12008KT 8000 -FZRA BKN015/// OVC025/// ///TCU 00/M00 Q1010 TEMPO 2000 RADZ OVC008
Conditions at: LFOK (CHALONS/VATRY FA, FR) observed 2100 UTC 19 January 2019
Temperature: 0.0°C (32°F)
Dewpoint: 0.0°C (32°F) [RH = 100%]
Pressure (altimeter): 29.82 inches Hg (1010.0 mb)
Winds: from the ESE (120 degrees) at 9 MPH (8 knots; 4.1 m/s)
Visibility: 5 miles ( 8 km)
Ceiling: 1500 feet AGL
Clouds: broken clouds at 1500 feet AGL
overcast cloud deck at 2500 feet AGL
Weather: -FZRA  (light freezing rain)

METAR text: LFOK 192030Z AUTO 12007KT 9999 -RA BKN012/// OVC026/// ///TCU 01/M00 Q1010 TEMPO 2000 RADZ OVC008
Conditions at: LFOK (CHALONS/VATRY FA, FR) observed 2030 UTC 19 January 2019
Temperature: 1.0°C (34°F)
Dewpoint: 0.0°C (32°F) [RH = 93%]
Pressure (altimeter): 29.82 inches Hg (1010.0 mb)
Winds: from the ESE (120 degrees) at 8 MPH (7 knots; 3.6 m/s)
Visibility: 6 or more miles (10+ km)
Ceiling: 1200 feet AGL
Clouds: broken clouds at 1200 feet AGL
overcast cloud deck at 2600 feet AGL
Weather: -RA  (light rain)

METAR text: LFOK 192000Z AUTO 14009KT 9999 BKN011 OVC025 01/M01 Q1010 TEMPO 2000 RADZ OVC008
Conditions at: LFOK (CHALONS/VATRY FA, FR) observed 2000 UTC 19 January 2019
Temperature: 1.0°C (34°F)
Dewpoint: -1.0°C (30°F) [RH = 86%]
Pressure (altimeter): 29.82 inches Hg (1010.0 mb)
Winds: from the SE (140 degrees) at 10 MPH (9 knots; 4.6 m/s)
Visibility: 6 or more miles (10+ km)
Ceiling: 1100 feet AGL
Clouds: broken clouds at 1100 feet AGL
overcast cloud deck at 2500 feet AGL
Weather: no significant weather observed at this time

METAR text: LFOK 191930Z AUTO 14010KT 9999 FEW012 OVC024 00/M01 Q1010 TEMPO 2000 RADZ OVC008
Conditions at: LFOK (CHALONS/VATRY FA, FR) observed 1930 UTC 19 January 2019
Temperature: 0.0°C (32°F)
Dewpoint: -1.0°C (30°F) [RH = 93%]
Pressure (altimeter): 29.82 inches Hg (1010.0 mb)
Winds: from the SE (140 degrees) at 12 MPH (10 knots; 5.1 m/s)
Visibility: 6 or more miles (10+ km)
Ceiling: 2400 feet AGL
Clouds: few clouds at 1200 feet AGL
overcast cloud deck at 2400 feet AGL
Weather: no significant weather observed at this time

METAR text: LFOK 191900Z AUTO 13010KT 9999 BKN012 OVC024 00/M01 Q1010 TEMPO 4000 -SN
Conditions at: LFOK (CHALONS/VATRY FA, FR) observed 1900 UTC 19 January 2019
Temperature: 0.0°C (32°F)
Dewpoint: -1.0°C (30°F) [RH = 93%]
Pressure (altimeter): 29.82 inches Hg (1010.0 mb)
Winds: from the SE (130 degrees) at 12 MPH (10 knots; 5.1 m/s)
Visibility: 6 or more miles (10+ km)
Ceiling: 1200 feet AGL
Clouds: broken clouds at 1200 feet AGL
overcast cloud deck at 2400 feet AGL
Weather: no significant weather observed at this time

METAR text: LFOK 191830Z AUTO 13008KT 9999 OVC012 00/M01 Q1010 TEMPO 4000 -SN BECMG BKN017 OVC027
Conditions at: LFOK (CHALONS/VATRY FA, FR) observed 1830 UTC 19 January 2019
Temperature: 0.0°C (32°F)
Dewpoint: -1.0°C (30°F) [RH = 93%]
Pressure (altimeter): 29.82 inches Hg (1010.0 mb)
Winds: from the SE (130 degrees) at 9 MPH (8 knots; 4.1 m/s)
Visibility: 6 or more miles (10+ km)
Ceiling: 1200 feet AGL
Clouds: overcast cloud deck at 1200 feet AGL
Weather: no significant weather observed at this time

METAR text: LFOK 191800Z AUTO 13009KT 9999 OVC013 00/M01 Q1010 TEMPO 4000 -SN BECMG BKN017 OVC027
Conditions at: LFOK (CHALONS/VATRY FA, FR) observed 1800 UTC 19 January 2019
Temperature: 0.0°C (32°F)
Dewpoint: -1.0°C (30°F) [RH = 93%]
Pressure (altimeter): 29.82 inches Hg (1010.0 mb)
Winds: from the SE (130 degrees) at 10 MPH (9 knots; 4.6 m/s)
Visibility: 6 or more miles (10+ km)
Ceiling: 1300 feet AGL
Clouds: overcast cloud deck at 1300 feet AGL
Weather: no significant weather observed at this time

METAR text: LFOK 191730Z AUTO 14010KT 9999 BKN013 BKN021 OVC038 01/M01 Q1010 TEMPO 4000 -SN BECMG BKN017 OVC027
Conditions at: LFOK (CHALONS/VATRY FA, FR) observed 1730 UTC 19 January 2019
Temperature: 1.0°C (34°F)
Dewpoint: -1.0°C (30°F) [RH = 86%]
Pressure (altimeter): 29.82 inches Hg (1010.0 mb)
Winds: from the SE (140 degrees) at 12 MPH (10 knots; 5.1 m/s)
Visibility: 6 or more miles (10+ km)
Ceiling: 1300 feet AGL
Clouds: broken clouds at 1300 feet AGL
broken clouds at 2100 feet AGL
overcast cloud deck at 3800 feet AGL
Weather: no significant weather observed at this time

METAR text: LFOK 191700Z AUTO 14011KT 9999 OVC021 01/M01 Q1010 BECMG 4000 -SN OVC010
Conditions at: LFOK (CHALONS/VATRY FA, FR) observed 1700 UTC 19 January 2019
Temperature: 1.0°C (34°F)
Dewpoint: -1.0°C (30°F) [RH = 86%]
Pressure (altimeter): 29.82 inches Hg (1010.0 mb)
Winds: from the SE (140 degrees) at 13 MPH (11 knots; 5.7 m/s)
Visibility: 6 or more miles (10+ km)
Ceiling: 2100 feet AGL
Clouds: overcast cloud deck at 2100 feet AGL
Weather: no significant weather observed at this time

METAR text: LFOK 191630Z AUTO 13009KT 9999 OVC022 01/M01 Q1010 BECMG 4000 -SN OVC010
Conditions at: LFOK (CHALONS/VATRY FA, FR) observed 1630 UTC 19 January 2019
Temperature: 1.0°C (34°F)
Dewpoint: -1.0°C (30°F) [RH = 86%]
Pressure (altimeter): 29.82 inches Hg (1010.0 mb)
Winds: from the SE (130 degrees) at 10 MPH (9 knots; 4.6 m/s)
Visibility: 6 or more miles (10+ km)
Ceiling: 2200 feet AGL
Clouds: overcast cloud deck at 2200 feet AGL
Weather: no significant weather observed at this time

METAR text: LFOK 191600Z AUTO 13008KT 9999 BKN019 OVC027 01/M01 Q1010 BECMG 4000 -SN OVC010
Conditions at: LFOK (CHALONS/VATRY FA, FR) observed 1600 UTC 19 January 2019
Temperature: 1.0°C (34°F)
Dewpoint: -1.0°C (30°F) [RH = 86%]
Pressure (altimeter): 29.82 inches Hg (1010.0 mb)
Winds: from the SE (130 degrees) at 9 MPH (8 knots; 4.1 m/s)
Visibility: 6 or more miles (10+ km)
Ceiling: 1900 feet AGL
Clouds: broken clouds at 1900 feet AGL
overcast cloud deck at 2700 feet AGL
Weather: no significant weather observed at this time

METAR text: LFOK 191530Z AUTO 13008KT 9999 BKN018 OVC029 01/M01 Q1010 BECMG 4000 -SN OVC010
Conditions at: LFOK (CHALONS/VATRY FA, FR) observed 1530 UTC 19 January 2019
Temperature: 1.0°C (34°F)
Dewpoint: -1.0°C (30°F) [RH = 86%]
Pressure (altimeter): 29.82 inches Hg (1010.0 mb)
Winds: from the SE (130 degrees) at 9 MPH (8 knots; 4.1 m/s)
Visibility: 6 or more miles (10+ km)
Ceiling: 1800 feet AGL
Clouds: broken clouds at 1800 feet AGL
overcast cloud deck at 2900 feet AGL
Weather: no significant weather observed at this time

METAR text: LFOK 191500Z AUTO 14007KT 9999 FEW019 BKN047 OVC058 02/M01 Q1011 BECMG 4000 -SN OVC010
Conditions at: LFOK (CHALONS/VATRY FA, FR) observed 1500 UTC 19 January 2019
Temperature: 2.0°C (36°F)
Dewpoint: -1.0°C (30°F) [RH = 80%]
Pressure (altimeter): 29.85 inches Hg (1011.0 mb)
Winds: from the SE (140 degrees) at 8 MPH (7 knots; 3.6 m/s)
Visibility: 6 or more miles (10+ km)
Ceiling: 4700 feet AGL
Clouds: few clouds at 1900 feet AGL
broken clouds at 4700 feet AGL
overcast cloud deck at 5800 feet AGL
Weather: no significant weather observed at this time

METAR text: LFOK 191430Z AUTO 13009KT 9999 FEW020 BKN064 BKN094 01/M01 Q1011 BECMG 4000 -SN OVC010
Conditions at: LFOK (CHALONS/VATRY FA, FR) observed 1430 UTC 19 January 2019
Temperature: 1.0°C (34°F)
Dewpoint: -1.0°C (30°F) [RH = 86%]
Pressure (altimeter): 29.85 inches Hg (1011.0 mb)
Winds: from the SE (130 degrees) at 10 MPH (9 knots; 4.6 m/s)
Visibility: 6 or more miles (10+ km)
Ceiling: 6400 feet AGL
Clouds: few clouds at 2000 feet AGL
broken clouds at 6400 feet AGL
broken clouds at 9400 feet AGL
Weather: no significant weather observed at this time

METAR text: LFOK 191400Z AUTO 13008KT CAVOK 02/M01 Q1011 BECMG 4000 -SN OVC010
Conditions at: LFOK (CHALONS/VATRY FA, FR) observed 1400 UTC 19 January 2019
Temperature: 2.0°C (36°F)
Dewpoint: -1.0°C (30°F) [RH = 80%]
Pressure (altimeter): 29.85 inches Hg (1011.0 mb)
Winds: from the SE (130 degrees) at 9 MPH (8 knots; 4.1 m/s)
Visibility: 6 or more miles (10+ km)
Ceiling: ceiling and visibility are OK
Clouds: unknown
Weather: no significant weather observed at this time

METAR text: LFOK 191330Z AUTO 13008KT CAVOK 02/M01 Q1011 BECMG 4000 -SN OVC010
Conditions at: LFOK (CHALONS/VATRY FA, FR) observed 1330 UTC 19 January 2019
Temperature: 2.0°C (36°F)
Dewpoint: -1.0°C (30°F) [RH = 80%]
Pressure (altimeter): 29.85 inches Hg (1011.0 mb)
Winds: from the SE (130 degrees) at 9 MPH (8 knots; 4.1 m/s)
Visibility: 6 or more miles (10+ km)
Ceiling: ceiling and visibility are OK
Clouds: unknown
Weather: no significant weather observed at this time

METAR text: LFOK 191300Z AUTO 13010KT CAVOK 03/M01 Q1012 BECMG 4000 -SN OVC010
Conditions at: LFOK (CHALONS/VATRY FA, FR) observed 1300 UTC 19 January 2019
Temperature: 3.0°C (37°F)
Dewpoint: -1.0°C (30°F) [RH = 75%]
Pressure (altimeter): 29.88 inches Hg (1012.0 mb)
Winds: from the SE (130 degrees) at 12 MPH (10 knots; 5.1 m/s)
Visibility: 6 or more miles (10+ km)
Ceiling: ceiling and visibility are OK
Clouds: unknown
Weather: no significant weather observed at this time

METAR text: LFOK 191230Z AUTO 14010KT CAVOK 02/M01 Q1012 BECMG 4000 -SN OVC010
Conditions at: LFOK (CHALONS/VATRY FA, FR) observed 1230 UTC 19 January 2019
Temperature: 2.0°C (36°F)
Dewpoint: -1.0°C (30°F) [RH = 80%]
Pressure (altimeter): 29.88 inches Hg (1012.0 mb)
Winds: from the SE (140 degrees) at 12 MPH (10 knots; 5.1 m/s)
Visibility: 6 or more miles (10+ km)
Ceiling: ceiling and visibility are OK
Clouds: unknown
Weather: no significant weather observed at this time

METAR text: LFOK 191200Z AUTO 15008KT CAVOK 01/M01 Q1013 NOSIG
Conditions at: LFOK (CHALONS/VATRY FA, FR) observed 1200 UTC 19 January 2019
Temperature: 1.0°C (34°F)
Dewpoint: -1.0°C (30°F) [RH = 86%]
Pressure (altimeter): 29.91 inches Hg (1013.0 mb)
Winds: from the SSE (150 degrees) at 9 MPH (8 knots; 4.1 m/s)
Visibility: 6 or more miles (10+ km)
Ceiling: ceiling and visibility are OK
Clouds: unknown
Weather: no significant weather observed at this time

METAR text: LFOK 191130Z AUTO 15010KT CAVOK 01/M01 Q1013 NOSIG
Conditions at: LFOK (CHALONS/VATRY FA, FR) observed 1130 UTC 19 January 2019
Temperature: 1.0°C (34°F)
Dewpoint: -1.0°C (30°F) [RH = 86%]
Pressure (altimeter): 29.91 inches Hg (1013.0 mb)
Winds: from the SSE (150 degrees) at 12 MPH (10 knots; 5.1 m/s)
Visibility: 6 or more miles (10+ km)
Ceiling: ceiling and visibility are OK
Clouds: unknown
Weather: no significant weather observed at this time

METAR text: LFOK 191100Z AUTO 13009KT CAVOK 01/M02 Q1013 NOSIG
Conditions at: LFOK (CHALONS/VATRY FA, FR) observed 1100 UTC 19 January 2019
Temperature: 1.0°C (34°F)
Dewpoint: -2.0°C (28°F) [RH = 80%]
Pressure (altimeter): 29.91 inches Hg (1013.0 mb)
Winds: from the SE (130 degrees) at 10 MPH (9 knots; 4.6 m/s)
Visibility: 6 or more miles (10+ km)
Ceiling: ceiling and visibility are OK
Clouds: unknown
Weather: no significant weather observed at this time

Forecast for: AMD
Text: TAF AMD LFOK 202006Z 2020/2118 03006KT 7000 NSC
Forecast period: 2000 UTC 20 January 2019 to 1800 UTC 21 January 2019
Forecast type: FROM: standard forecast or significant change
Winds: from the NNE (30 degrees) at 7 MPH (6 knots; 3.1 m/s)
Visibility: 4 miles (7 km)
Ceiling: unknown
Clouds: missing
Weather: no significant weather forecast for this period
Text: TEMPO 2020/2108 3000 BR
Forecast period: 2000 UTC 20 January 2019 to 0800 UTC 21 January 2019
Forecast type: TEMPORARY: The following changes expected for less than half the time period
Visibility: 1.86 miles (2.99 km)
Ceiling: unknown
Clouds: missing
Weather: BR  (mist)